Terminal Aerodrome Forecast
Issued by NWS Denver/Boulder, CO

Home | Current Version | Previous Version | Text Only | Print | Product List | Glossary On
Versions: 1 2 3 4 5 6 7 8 9 10 11 12 13 14 15 16 17 18 19 20 21 22 23 24 25 26 27 28 29 30 31 32 33 34 35 36 37 38
000
FTUS45 KBOU 140522
TAFDEN
TAF
KDEN 140522Z 1406/1512 35015KT 3SM -SN BR BKN014 OVC025
      TEMPO 1406/1408 1SM -SN BR BKN008 OVC014
     FM140800 35013KT 5SM -SN BR SCT020 OVC030
     FM141000 34012KT P6SM SCT030 OVC050
     FM141400 30010KT P6SM SCT050 OVC080
     FM141700 28008KT P6SM SCT080 SCT120
     FM142200 23008KT P6SM FEW120 SCT200
     FM150300 20008KT P6SM FEW120 SCT200=

USA.gov is the U.S. government's official web portal to all federal, state and local government web resources and services.